Time;durP1;ratioP1;P1;durP2;ratioP2;P2;SDS_P1;SDS_P2;PMS_P1;PMS_P2;Temp;Humidity;BMP_temperature;BMP_pressure;BME280_temperature;BME280_humidity;BME280_pressure;Samples;Min_cycle;Max_cycle;Signal;HPM_P1;HPM_P2
2023/09/18 00:00:12;;;;;;;;;5.00;2.00;;;;;;;;5124490;27;8787;-74
2023/09/18 00:02:37;;;;;;;;;2.67;2.67;;;;;;;;5123883;27;8793;-74
2023/09/18 00:05:03;;;;;;;;;2.00;2.00;;;;;;;;5125147;28;9406;-74
2023/09/18 00:07:28;;;;;;;;;3.00;3.00;;;;;;;;5124543;27;8953;-74
2023/09/18 00:09:53;;;;;;;;;6.00;4.00;;;;;;;;5126179;27;8894;-74
2023/09/18 00:12:18;;;;;;;;;3.00;3.00;;;;;;;;5142108;27;8828;-74
2023/09/18 00:14:47;;;;;;;;;3.67;3.33;;;;;;;;5142865;27;8812;-74
2023/09/18 00:17:13;;;;;;;;;4.00;3.00;;;;;;;;5125123;27;8909;-74
2023/09/18 00:19:38;;;;;;;;;3.67;3.00;;;;;;;;5127870;27;9273;-74
2023/09/18 00:22:03;;;;;;;;;4.33;4.00;;;;;;;;5126494;27;8875;-74
2023/09/18 00:24:28;;;;;;;;;5.00;3.33;;;;;;;;5121454;28;10207;-74
2023/09/18 00:26:54;;;;;;;;;3.00;3.00;;;;;;;;5123135;28;8803;-74
2023/09/18 00:29:19;;;;;;;;;4.00;3.00;;;;;;;;5122417;28;8810;-74
2023/09/18 00:31:44;;;;;;;;;1.67;1.67;;;;;;;;5124866;27;8771;-74
2023/09/18 00:34:10;;;;;;;;;3.00;2.00;;;;;;;;5123407;28;10152;-74
2023/09/18 00:36:35;;;;;;;;;1.67;1.00;;;;;;;;5128294;27;8859;-74
2023/09/18 00:39:00;;;;;;;;;3.33;2.00;;;;;;;;5143227;27;8799;-74
2023/09/18 00:41:25;;;;;;;;;2.67;1.00;;;;;;;;5136536;27;8799;-74
2023/09/18 00:43:51;;;;;;;;;0.00;0.00;;;;;;;;5124078;27;8845;-74
2023/09/18 00:46:16;;;;;;;;;3.00;1.67;;;;;;;;5122806;28;8795;-74
2023/09/18 00:48:41;;;;;;;;;1.33;1.33;;;;;;;;5124196;27;8779;-74
2023/09/18 00:51:08;;;;;;;;;1.00;1.00;;;;;;;;5122958;28;8783;-74
2023/09/18 00:53:33;;;;;;;;;3.00;1.00;;;;;;;;5123620;27;8812;-74
2023/09/18 00:56:00;;;;;;;;;0.00;0.00;;;;;;;;5123554;27;9263;-74
2023/09/18 00:58:26;;;;;;;;;1.33;1.00;;;;;;;;5123750;27;8728;-74
2023/09/18 01:00:51;;;;;;;;;0.00;0.00;;;;;;;;5124231;28;9359;-74
2023/09/18 01:03:18;;;;;;;;;0.67;0.67;;;;;;;;5123711;28;8768;-74
2023/09/18 01:05:44;;;;;;;;;1.67;0.33;;;;;;;;5124288;27;8785;-74
2023/09/18 01:08:09;;;;;;;;;1.00;0.00;;;;;;;;5129436;27;9187;-74
2023/09/18 01:10:40;;;;;;;;;2.00;0.00;;;;;;;;5144496;27;9645;-74
2023/09/18 01:13:15;;;;;;;;;0.00;0.00;;;;;;;;5131160;27;8784;-74
2023/09/18 01:15:48;;;;;;;;;2.00;0.00;;;;;;;;5123915;27;9239;-74
2023/09/18 01:18:13;;;;;;;;;0.00;0.00;;;;;;;;5124138;27;9129;-74
2023/09/18 01:20:39;;;;;;;;;1.67;0.00;;;;;;;;5123826;27;9338;-74
2023/09/18 01:23:04;;;;;;;;;1.00;1.00;;;;;;;;5122495;28;10011;-74
2023/09/18 01:25:30;;;;;;;;;0.00;0.00;;;;;;;;5142660;27;8902;-74
2023/09/18 01:27:56;;;;;;;;;0.00;0.00;;;;;;;;5143885;27;8824;-74
2023/09/18 01:30:21;;;;;;;;;0.33;0.00;;;;;;;;5144419;27;9194;-74
2023/09/18 01:32:46;;;;;;;;;0.33;0.00;;;;;;;;5144247;27;8787;-74
2023/09/18 01:35:12;;;;;;;;;0.00;0.00;;;;;;;;5137967;27;8791;-74
2023/09/18 01:37:37;;;;;;;;;0.00;0.00;;;;;;;;5123290;27;8859;-74
2023/09/18 01:40:06;;;;;;;;;0.00;0.00;;;;;;;;5123912;27;8881;-74
2023/09/18 01:42:32;;;;;;;;;0.00;0.00;;;;;;;;5121620;28;8743;-74
2023/09/18 01:44:57;;;;;;;;;0.00;0.00;;;;;;;;5122464;27;9280;-74
2023/09/18 01:47:26;;;;;;;;;0.00;0.00;;;;;;;;5122386;27;8889;-74
2023/09/18 01:49:52;;;;;;;;;0.33;0.33;;;;;;;;5123276;27;8906;-74
2023/09/18 01:52:17;;;;;;;;;0.00;0.00;;;;;;;;5123141;27;10278;-74
2023/09/18 01:54:43;;;;;;;;;1.00;0.00;;;;;;;;5136583;27;8834;-74
2023/09/18 01:57:08;;;;;;;;;0.00;0.00;;;;;;;;5121980;27;8805;-74
2023/09/18 01:59:34;;;;;;;;;0.00;0.00;;;;;;;;5122361;28;8784;-74
2023/09/18 02:01:59;;;;;;;;;2.00;0.67;;;;;;;;5122863;28;9559;-74
2023/09/18 02:04:25;;;;;;;;;0.00;0.00;;;;;;;;5123414;28;8773;-74
2023/09/18 02:06:51;;;;;;;;;0.33;0.00;;;;;;;;5122997;27;8726;-74
2023/09/18 02:09:17;;;;;;;;;0.00;0.00;;;;;;;;5123099;27;9390;-74
2023/09/18 02:11:43;;;;;;;;;0.00;0.00;;;;;;;;5122304;28;10874;-74
2023/09/18 02:14:09;;;;;;;;;0.00;0.00;;;;;;;;5124439;27;8753;-74
2023/09/18 02:16:42;;;;;;;;;0.00;0.00;;;;;;;;5138905;27;9476;-74
2023/09/18 02:19:10;;;;;;;;;2.33;0.00;;;;;;;;5143667;27;9251;-74
2023/09/18 02:21:36;;;;;;;;;0.00;0.00;;;;;;;;5143969;27;9384;-74
2023/09/18 02:24:01;;;;;;;;;0.00;0.00;;;;;;;;5135505;27;9260;-74
2023/09/18 02:26:27;;;;;;;;;1.00;1.00;;;;;;;;5120199;27;8822;-74
2023/09/18 02:28:55;;;;;;;;;0.00;0.00;;;;;;;;5121675;28;8819;-74
2023/09/18 02:31:21;;;;;;;;;0.00;0.00;;;;;;;;5122763;27;8783;-74
2023/09/18 02:33:47;;;;;;;;;1.33;0.00;;;;;;;;5135395;27;9421;-74
2023/09/18 02:36:12;;;;;;;;;1.00;0.00;;;;;;;;5143595;27;8777;-74
2023/09/18 02:38:38;;;;;;;;;0.00;0.00;;;;;;;;5145074;27;8792;-74
2023/09/18 02:41:03;;;;;;;;;2.00;0.33;;;;;;;;5129602;27;8825;-74
2023/09/18 02:43:28;;;;;;;;;1.00;1.00;;;;;;;;5111580;27;8857;-74
2023/09/18 02:45:53;;;;;;;;;0.00;0.00;;;;;;;;5130502;27;8781;-74
2023/09/18 02:48:19;;;;;;;;;3.00;0.00;;;;;;;;5130664;27;8845;-74
2023/09/18 02:50:44;;;;;;;;;0.00;0.00;;;;;;;;5126509;27;8930;-74
2023/09/18 02:53:20;;;;;;;;;0.00;0.00;;;;;;;;5125889;27;8876;-74
2023/09/18 02:55:46;;;;;;;;;1.00;0.00;;;;;;;;5124950;27;8759;-74
2023/09/18 02:58:11;;;;;;;;;2.00;1.00;;;;;;;;5126309;28;9408;-74
2023/09/18 03:00:43;;;;;;;;;0.00;0.00;;;;;;;;5126271;27;9501;-74
2023/09/18 03:03:09;;;;;;;;;3.00;0.00;;;;;;;;5126081;27;8794;-74
2023/09/18 03:05:34;;;;;;;;;0.00;0.00;;;;;;;;5126138;27;9393;-73
2023/09/18 03:07:59;;;;;;;;;0.00;0.00;;;;;;;;5124384;28;8891;-74
2023/09/18 03:10:24;;;;;;;;;1.00;0.00;;;;;;;;5125184;27;8798;-74
2023/09/18 03:12:50;;;;;;;;;0.00;0.00;;;;;;;;5125758;27;8796;-74
2023/09/18 03:15:15;;;;;;;;;0.00;0.00;;;;;;;;5126268;28;8834;-74
2023/09/18 03:17:41;;;;;;;;;0.00;0.00;;;;;;;;5124408;27;8785;-74
2023/09/18 03:20:07;;;;;;;;;0.00;0.00;;;;;;;;5140994;27;10222;-73
2023/09/18 03:22:32;;;;;;;;;1.00;0.00;;;;;;;;5144461;27;9385;-74
2023/09/18 03:24:58;;;;;;;;;1.00;1.00;;;;;;;;5143254;27;8821;-73
2023/09/18 03:27:28;;;;;;;;;1.00;0.00;;;;;;;;5146756;27;8803;-74
2023/09/18 03:29:53;;;;;;;;;2.00;1.00;;;;;;;;5146540;27;8789;-74
2023/09/18 03:32:18;;;;;;;;;1.50;1.00;;;;;;;;5138541;27;9376;-74
2023/09/18 03:34:44;;;;;;;;;0.00;0.00;;;;;;;;5125543;28;8749;-74
2023/09/18 03:37:09;;;;;;;;;1.00;0.00;;;;;;;;5124058;28;8854;-74
2023/09/18 03:39:35;;;;;;;;;2.67;1.00;;;;;;;;5124736;27;9545;-74
2023/09/18 03:42:00;;;;;;;;;1.00;0.00;;;;;;;;5136732;27;8812;-74
2023/09/18 03:44:25;;;;;;;;;0.00;0.00;;;;;;;;5146439;27;8803;-74
2023/09/18 03:46:50;;;;;;;;;0.33;0.33;;;;;;;;5145986;27;8809;-74
2023/09/18 03:49:16;;;;;;;;;0.00;0.00;;;;;;;;5145612;27;8789;-74
2023/09/18 03:51:41;;;;;;;;;2.00;1.00;;;;;;;;5133584;27;8800;-74
2023/09/18 03:54:06;;;;;;;;;3.00;0.67;;;;;;;;5124557;28;8795;-74
2023/09/18 03:56:31;;;;;;;;;2.00;1.00;;;;;;;;5124664;27;8802;-74
2023/09/18 03:58:58;;;;;;;;;1.00;1.00;;;;;;;;5125099;28;8875;-74
2023/09/18 04:01:23;;;;;;;;;2.00;0.00;;;;;;;;5125593;28;8783;-74
2023/09/18 04:03:48;;;;;;;;;1.00;1.00;;;;;;;;5124894;28;9404;-74
2023/09/18 04:06:14;;;;;;;;;0.67;0.67;;;;;;;;5125546;28;8805;-74
2023/09/18 04:08:39;;;;;;;;;1.00;0.00;;;;;;;;5123936;28;8797;-74
2023/09/18 04:11:04;;;;;;;;;0.00;0.00;;;;;;;;5124474;28;8855;-74
2023/09/18 04:13:29;;;;;;;;;0.67;0.67;;;;;;;;5123192;28;8896;-74
2023/09/18 04:15:56;;;;;;;;;1.00;1.00;;;;;;;;5124563;27;8844;-74
2023/09/18 04:18:21;;;;;;;;;0.00;0.00;;;;;;;;5124737;27;8859;-74
2023/09/18 04:20:47;;;;;;;;;0.33;0.00;;;;;;;;5117150;27;9148;-74
2023/09/18 04:23:20;;;;;;;;;4.67;0.00;;;;;;;;5134676;27;8858;-74
2023/09/18 04:25:45;;;;;;;;;0.67;0.67;;;;;;;;5127784;27;8793;-74
2023/09/18 04:28:12;;;;;;;;;0.00;0.00;;;;;;;;5144455;27;9536;-73
2023/09/18 04:30:37;;;;;;;;;1.67;1.67;;;;;;;;5107675;27;8765;-74
2023/09/18 04:33:03;;;;;;;;;1.67;1.33;;;;;;;;5103598;28;9471;-74
2023/09/18 04:35:28;;;;;;;;;0.00;0.00;;;;;;;;5103977;28;8797;-74
2023/09/18 04:37:55;;;;;;;;;2.00;1.00;;;;;;;;5103598;28;8801;-73
2023/09/18 04:40:21;;;;;;;;;1.00;0.00;;;;;;;;5104206;28;8778;-74
2023/09/18 04:42:46;;;;;;;;;0.67;0.67;;;;;;;;5103750;28;9042;-74
2023/09/18 04:45:11;;;;;;;;;0.00;0.00;;;;;;;;5103725;28;8794;-74
2023/09/18 04:47:36;;;;;;;;;2.00;0.67;;;;;;;;5129030;27;9917;-74
2023/09/18 04:50:06;;;;;;;;;2.33;2.00;;;;;;;;5142392;27;8831;-74
2023/09/18 04:52:31;;;;;;;;;1.00;0.67;;;;;;;;5144345;27;8799;-73
2023/09/18 04:54:57;;;;;;;;;1.00;1.00;;;;;;;;5143352;27;9321;-74
2023/09/18 04:57:22;;;;;;;;;5.00;2.00;;;;;;;;5123909;28;8948;-74
2023/09/18 04:59:48;;;;;;;;;1.67;1.33;;;;;;;;5123094;28;11457;-74
2023/09/18 05:02:13;;;;;;;;;0.67;0.67;;;;;;;;5124190;27;8810;-74
2023/09/18 05:04:38;;;;;;;;;0.00;0.00;;;;;;;;5134345;27;8794;-76
2023/09/18 05:07:03;;;;;;;;;0.67;0.67;;;;;;;;5124394;27;8801;-80
2023/09/18 05:09:29;;;;;;;;;1.00;1.00;;;;;;;;5131251;27;8923;-79
2023/09/18 05:11:54;;;;;;;;;2.33;1.00;;;;;;;;5144414;27;8819;-76
2023/09/18 05:14:19;;;;;;;;;2.33;1.00;;;;;;;;5143691;27;8826;-76
2023/09/18 05:16:44;;;;;;;;;1.00;1.00;;;;;;;;5143176;27;10072;-76
2023/09/18 05:19:10;;;;;;;;;0.67;0.67;;;;;;;;5143016;27;8824;-78
2023/09/18 05:21:36;;;;;;;;;1.00;1.00;;;;;;;;5123883;27;8758;-73
2023/09/18 05:24:01;;;;;;;;;2.00;1.00;;;;;;;;5133317;27;9419;-76
2023/09/18 05:26:27;;;;;;;;;1.00;1.00;;;;;;;;5122390;28;9942;-84
2023/09/18 05:28:54;;;;;;;;;1.00;1.00;;;;;;;;5123643;27;8792;-76
2023/09/18 05:31:20;;;;;;;;;2.33;1.00;;;;;;;;5123311;27;9454;-75
2023/09/18 05:33:45;;;;;;;;;2.00;1.67;;;;;;;;5122654;27;9356;-75
2023/09/18 05:36:12;;;;;;;;;6.00;2.00;;;;;;;;5123232;27;8799;-75
2023/09/18 05:38:37;;;;;;;;;3.50;1.25;;;;;;;;5124105;27;8815;-73
2023/09/18 05:41:05;;;;;;;;;5.50;3.00;;;;;;;;5121573;28;9700;-75
2023/09/18 05:43:30;;;;;;;;;9.00;6.75;;;;;;;;5123886;27;8819;-75
2023/09/18 05:45:55;;;;;;;;;3.67;1.00;;;;;;;;5122712;27;10065;-75
2023/09/18 05:48:20;;;;;;;;;1.00;0.75;;;;;;;;5121442;27;8834;-75
2023/09/18 05:50:46;;;;;;;;;4.75;1.75;;;;;;;;5121259;27;8850;-75
2023/09/18 05:53:11;;;;;;;;;2.50;2.50;;;;;;;;5123033;27;8787;-75
2023/09/18 05:55:36;;;;;;;;;3.33;1.67;;;;;;;;5125209;27;8810;-75
2023/09/18 05:58:03;;;;;;;;;4.00;1.67;;;;;;;;5124269;27;8856;-75
2023/09/18 06:00:30;;;;;;;;;4.33;1.67;;;;;;;;5121996;27;8881;-73
2023/09/18 06:02:55;;;;;;;;;3.00;3.00;;;;;;;;5130555;27;9174;-75
2023/09/18 06:05:21;;;;;;;;;4.67;3.00;;;;;;;;5143589;27;9633;-73
2023/09/18 06:07:47;;;;;;;;;2.67;2.67;;;;;;;;5130730;27;8781;-74
2023/09/18 06:10:13;;;;;;;;;3.00;3.00;;;;;;;;5123154;27;8797;-74
2023/09/18 06:12:39;;;;;;;;;3.00;3.00;;;;;;;;5127977;27;8899;-74
2023/09/18 06:15:09;;;;;;;;;5.33;4.67;;;;;;;;5122422;27;9558;-74
2023/09/18 06:17:34;;;;;;;;;3.00;3.00;;;;;;;;5125912;27;8788;-74
2023/09/18 06:19:59;;;;;;;;;3.67;3.33;;;;;;;;5134319;27;10275;-73
2023/09/18 06:22:24;;;;;;;;;4.33;4.33;;;;;;;;5140462;27;8808;-75
2023/09/18 06:24:49;;;;;;;;;4.00;2.00;;;;;;;;5138452;27;8792;-74
2023/09/18 06:27:15;;;;;;;;;7.67;4.00;;;;;;;;5140006;27;8877;-74
2023/09/18 06:29:42;;;;;;;;;3.00;2.00;;;;;;;;5135440;27;8873;-76
2023/09/18 06:32:07;;;;;;;;;3.67;3.67;;;;;;;;5136706;27;8810;-75
2023/09/18 06:34:32;;;;;;;;;4.00;4.00;;;;;;;;5143573;27;9880;-76
2023/09/18 06:36:58;;;;;;;;;5.33;4.67;;;;;;;;5142149;27;8876;-78
2023/09/18 06:39:24;;;;;;;;;5.33;4.33;;;;;;;;5138320;27;8784;-76
2023/09/18 06:41:49;;;;;;;;;2.67;2.67;;;;;;;;5129659;27;8755;-77
2023/09/18 06:44:15;;;;;;;;;4.00;4.00;;;;;;;;5123603;27;9666;-76
2023/09/18 06:46:40;;;;;;;;;5.33;3.67;;;;;;;;5126448;27;8797;-77
2023/09/18 06:49:05;;;;;;;;;4.67;4.33;;;;;;;;5131350;27;8905;-76
2023/09/18 06:51:31;;;;;;;;;9.00;4.50;;;;;;;;5128452;27;8804;-75
2023/09/18 06:54:02;;;;;;;;;7.67;5.00;;;;;;;;5110751;27;10063;-75
2023/09/18 06:56:27;;;;;;;;;4.00;3.75;;;;;;;;5113479;27;10259;-75
2023/09/18 06:58:52;;;;;;;;;3.00;3.00;;;;;;;;5121432;27;9590;-76
2023/09/18 07:01:19;;;;;;;;;4.00;4.00;;;;;;;;5121325;27;8791;-75
2023/09/18 07:03:46;;;;;;;;;2.00;2.00;;;;;;;;5121729;27;8796;-76
2023/09/18 07:06:12;;;;;;;;;7.00;4.50;;;;;;;;5137355;27;9408;-75
2023/09/18 07:08:37;;;;;;;;;6.33;5.33;;;;;;;;5142553;27;9561;-76
2023/09/18 07:11:02;;;;;;;;;7.00;5.00;;;;;;;;5141588;27;8846;-75
2023/09/18 07:13:28;;;;;;;;;3.67;3.00;;;;;;;;5141556;27;10067;-76
2023/09/18 07:15:53;;;;;;;;;5.00;3.67;;;;;;;;5128971;27;8816;-76
2023/09/18 07:18:18;;;;;;;;;6.67;5.00;;;;;;;;5121062;28;8787;-76
2023/09/18 07:20:43;;;;;;;;;2.67;2.00;;;;;;;;5122303;27;8842;-75
2023/09/18 07:23:09;;;;;;;;;5.00;5.00;;;;;;;;5121720;28;10345;-75
2023/09/18 07:25:34;;;;;;;;;3.00;3.00;;;;;;;;5124449;27;8817;-76
2023/09/18 07:28:00;;;;;;;;;4.00;2.67;;;;;;;;5126057;27;8780;-76
2023/09/18 07:30:26;;;;;;;;;4.00;2.00;;;;;;;;5124876;28;8828;-75
2023/09/18 07:32:56;;;;;;;;;6.33;3.00;;;;;;;;5125528;27;8779;-76
2023/09/18 07:35:22;;;;;;;;;3.00;2.00;;;;;;;;5124590;28;9423;-76
2023/09/18 07:37:48;;;;;;;;;2.67;2.67;;;;;;;;5124062;28;9115;-76
2023/09/18 07:40:13;;;;;;;;;4.67;3.00;;;;;;;;5125810;27;9410;-75
2023/09/18 07:42:39;;;;;;;;;5.67;2.67;;;;;;;;5125307;27;9689;-76
2023/09/18 07:45:04;;;;;;;;;9.67;3.00;;;;;;;;5123442;28;8838;-75
2023/09/18 07:47:30;;;;;;;;;4.00;3.00;;;;;;;;5124351;28;8793;-76
2023/09/18 07:49:56;;;;;;;;;6.33;5.00;;;;;;;;5124180;28;8768;-76
2023/09/18 07:52:21;;;;;;;;;3.33;2.00;;;;;;;;5125340;27;9392;-76
2023/09/18 07:54:47;;;;;;;;;2.33;2.00;;;;;;;;5124008;27;9590;-76
2023/09/18 07:57:13;;;;;;;;;5.00;4.00;;;;;;;;5125304;27;8815;-76
2023/09/18 07:59:42;;;;;;;;;7.33;4.00;;;;;;;;5124500;28;8763;-76
2023/09/18 08:02:09;;;;;;;;;3.00;3.00;;;;;;;;5132271;27;10133;-76
2023/09/18 08:04:34;;;;;;;;;4.33;2.67;;;;;;;;5127251;27;9842;-78
2023/09/18 08:07:00;;;;;;;;;4.00;4.00;;;;;;;;5140162;27;9195;-75
2023/09/18 08:09:25;;;;;;;;;7.00;4.67;;;;;;;;5145455;27;8785;-77
2023/09/18 08:11:55;;;;;;;;;5.67;4.33;;;;;;;;5144023;27;9919;-77
2023/09/18 08:14:20;;;;;;;;;4.67;3.00;;;;;;;;5137160;27;8768;-77
2023/09/18 08:16:45;;;;;;;;;6.33;3.00;;;;;;;;5123580;28;9288;-77
2023/09/18 08:19:14;;;;;;;;;3.00;3.00;;;;;;;;5140392;27;9579;-77
2023/09/18 08:21:40;;;;;;;;;6.00;3.00;;;;;;;;5145404;27;8725;-75
2023/09/18 08:24:05;;;;;;;;;2.00;2.00;;;;;;;;5144322;27;9216;-78
2023/09/18 08:26:30;;;;;;;;;7.33;3.67;;;;;;;;5145063;27;8809;-78
2023/09/18 08:28:55;;;;;;;;;4.33;3.00;;;;;;;;5144705;27;8843;-78
2023/09/18 08:31:21;;;;;;;;;3.00;3.00;;;;;;;;5144337;27;10029;-78
2023/09/18 08:33:46;;;;;;;;;4.67;3.67;;;;;;;;5145028;27;9539;-77
2023/09/18 08:36:12;;;;;;;;;7.67;4.00;;;;;;;;5144050;27;8792;-78
2023/09/18 08:38:37;;;;;;;;;6.33;3.67;;;;;;;;5144046;27;8756;-78
2023/09/18 08:41:04;;;;;;;;;5.33;1.67;;;;;;;;5145157;27;9401;-78
2023/09/18 08:43:31;;;;;;;;;2.67;2.67;;;;;;;;5144942;27;8784;-78
2023/09/18 08:46:01;;;;;;;;;2.67;2.67;;;;;;;;5145119;27;9165;-78
2023/09/18 08:48:28;;;;;;;;;5.00;3.67;;;;;;;;5143811;27;8864;-78
2023/09/18 08:50:54;;;;;;;;;4.00;4.00;;;;;;;;5140911;27;9391;-78
2023/09/18 08:53:19;;;;;;;;;4.33;3.33;;;;;;;;5122892;27;9264;-78
2023/09/18 08:55:44;;;;;;;;;5.00;4.00;;;;;;;;5123912;27;8860;-78
2023/09/18 08:58:10;;;;;;;;;5.67;4.33;;;;;;;;5123681;28;8920;-78
2023/09/18 09:00:36;;;;;;;;;5.00;3.00;;;;;;;;5123063;28;10189;-78
2023/09/18 09:03:02;;;;;;;;;6.00;4.00;;;;;;;;5124118;28;8720;-78
2023/09/18 09:05:28;;;;;;;;;3.00;3.00;;;;;;;;5124463;28;9066;-78
2023/09/18 09:07:54;;;;;;;;;4.00;4.00;;;;;;;;5124234;28;9234;-78
2023/09/18 09:10:19;;;;;;;;;5.33;4.33;;;;;;;;5122545;28;10150;-75
2023/09/18 09:12:51;;;;;;;;;4.67;3.67;;;;;;;;5123651;28;9188;-75
2023/09/18 09:15:16;;;;;;;;;5.00;4.00;;;;;;;;5123974;27;8743;-75
2023/09/18 09:17:42;;;;;;;;;5.00;3.67;;;;;;;;5124304;28;9183;-76
2023/09/18 09:20:09;;;;;;;;;4.00;4.00;;;;;;;;5124076;28;8894;-75
2023/09/18 09:22:34;;;;;;;;;5.33;5.33;;;;;;;;5123469;27;8794;-75
2023/09/18 09:24:59;;;;;;;;;6.33;5.33;;;;;;;;5121898;28;9129;-75
2023/09/18 09:27:25;;;;;;;;;4.33;3.00;;;;;;;;5123156;27;9603;-75
2023/09/18 09:29:59;;;;;;;;;7.00;3.33;;;;;;;;5124299;27;9537;-75
2023/09/18 09:32:29;;;;;;;;;4.00;4.00;;;;;;;;5122271;28;8811;-76
2023/09/18 09:34:59;;;;;;;;;4.00;4.00;;;;;;;;5124271;27;9143;-78
2023/09/18 09:37:30;;;;;;;;;3.00;3.00;;;;;;;;5123795;27;8957;-78
2023/09/18 09:39:55;;;;;;;;;6.00;4.00;;;;;;;;5121829;28;10521;-77
2023/09/18 09:42:24;;;;;;;;;5.33;4.00;;;;;;;;5123649;27;9185;-78
2023/09/18 09:45:01;;;;;;;;;5.00;3.00;;;;;;;;5122570;28;8828;-78
2023/09/18 09:47:27;;;;;;;;;3.00;3.00;;;;;;;;5122810;27;9132;-78
2023/09/18 09:49:54;;;;;;;;;5.00;5.00;;;;;;;;5123947;27;9285;-77
2023/09/18 09:52:22;;;;;;;;;3.00;3.00;;;;;;;;5123856;27;8784;-78
2023/09/18 09:54:47;;;;;;;;;3.00;3.00;;;;;;;;5120450;28;8903;-77
2023/09/18 09:57:12;;;;;;;;;2.33;2.33;;;;;;;;5123746;27;8898;-78
2023/09/18 09:59:39;;;;;;;;;3.67;2.33;;;;;;;;5123821;27;8802;-78
2023/09/18 10:02:09;;;;;;;;;2.33;2.33;;;;;;;;5123977;27;8743;-78
2023/09/18 10:04:36;;;;;;;;;2.00;2.00;;;;;;;;5122942;27;8988;-78
2023/09/18 10:07:09;;;;;;;;;2.33;2.33;;;;;;;;5122054;28;8824;-77
2023/09/18 10:09:35;;;;;;;;;1.67;1.67;;;;;;;;5120985;28;10098;-78
2023/09/18 10:12:01;;;;;;;;;5.00;3.00;;;;;;;;5123832;27;8890;-78
2023/09/18 10:14:31;;;;;;;;;4.00;3.33;;;;;;;;5121771;28;8982;-78
2023/09/18 10:16:58;;;;;;;;;7.33;4.00;;;;;;;;5123523;27;8747;-78
2023/09/18 10:19:33;;;;;;;;;4.00;2.33;;;;;;;;5123254;27;9275;-77
2023/09/18 10:22:19;;;;;;;;;3.67;3.67;;;;;;;;5123684;27;8956;-78
2023/09/18 10:24:47;;;;;;;;;4.00;3.00;;;;;;;;5121547;27;9148;-77
2023/09/18 10:27:13;;;;;;;;;4.00;2.67;;;;;;;;5122153;28;8883;-78
2023/09/18 10:29:40;;;;;;;;;2.00;2.00;;;;;;;;5123111;27;9049;-78
2023/09/18 10:32:09;;;;;;;;;3.00;1.75;;;;;;;;5123334;27;8711;-78
2023/09/18 10:34:36;;;;;;;;;2.67;2.00;;;;;;;;5122867;27;8772;-77
2023/09/18 10:37:10;;;;;;;;;3.67;3.00;;;;;;;;5123506;27;8799;-78
2023/09/18 10:39:37;;;;;;;;;3.00;3.00;;;;;;;;5120685;28;10133;-78
2023/09/18 10:42:03;;;;;;;;;2.25;2.25;;;;;;;;5123498;27;8907;-78
2023/09/18 10:44:29;;;;;;;;;3.00;3.00;;;;;;;;5124966;27;9720;-88
2023/09/18 10:46:55;;;;;;;;;4.00;2.33;;;;;;;;5133928;27;8812;-79
2023/09/18 10:49:21;;;;;;;;;3.00;3.00;;;;;;;;5133880;27;8903;-79
2023/09/18 10:51:47;;;;;;;;;2.00;2.00;;;;;;;;5141846;27;8815;-77
2023/09/18 10:54:16;;;;;;;;;4.00;2.00;;;;;;;;5140835;27;8789;-79
2023/09/18 10:56:42;;;;;;;;;1.00;1.00;;;;;;;;5126428;27;8806;-79
2023/09/18 10:59:07;;;;;;;;;1.67;1.67;;;;;;;;5125525;27;9550;-77
2023/09/18 11:01:36;;;;;;;;;3.00;1.33;;;;;;;;5126420;27;8858;-78
2023/09/18 11:04:02;;;;;;;;;2.75;2.75;;;;;;;;5133241;27;8756;-77
2023/09/18 11:06:27;;;;;;;;;0.75;0.75;;;;;;;;5126662;27;8828;-78
2023/09/18 11:09:01;;;;;;;;;3.00;3.00;;;;;;;;5124833;27;8795;-77
2023/09/18 11:11:29;;;;;;;;;3.00;3.00;;;;;;;;5126500;27;8780;-75
2023/09/18 11:13:55;;;;;;;;;3.75;1.50;;;;;;;;5124491;28;8765;-75
2023/09/18 11:16:27;;;;;;;;;5.00;0.67;;;;;;;;5126187;28;9015;-75
2023/09/18 11:18:53;;;;;;;;;4.75;2.75;;;;;;;;5125734;27;8869;-75
2023/09/18 11:21:23;;;;;;;;;1.50;1.50;;;;;;;;5125887;27;8715;-76
2023/09/18 11:23:57;;;;;;;;;1.75;1.75;;;;;;;;5124938;27;8779;-74
2023/09/18 11:26:23;;;;;;;;;2.50;2.50;;;;;;;;5138601;27;8834;-76
2023/09/18 11:28:50;;;;;;;;;2.33;1.33;;;;;;;;5125733;27;8810;-76
2023/09/18 11:31:15;;;;;;;;;2.00;2.00;;;;;;;;5125737;27;11471;-76
2023/09/18 11:33:44;;;;;;;;;3.33;2.33;;;;;;;;5125892;27;8855;-76
2023/09/18 11:36:14;;;;;;;;;2.50;0.75;;;;;;;;5124075;28;8926;-76
2023/09/18 11:38:55;;;;;;;;;2.00;2.00;;;;;;;;5127388;27;8780;-74
2023/09/18 11:41:25;;;;;;;;;2.25;1.00;;;;;;;;5145052;27;8905;-76
2023/09/18 11:43:51;;;;;;;;;0.75;0.75;;;;;;;;5146366;27;8777;-76
2023/09/18 11:46:22;;;;;;;;;1.67;1.67;;;;;;;;5143962;27;8831;-76
2023/09/18 11:48:50;;;;;;;;;2.00;1.00;;;;;;;;5142398;27;8752;-76
2023/09/18 11:51:20;;;;;;;;;2.00;0.75;;;;;;;;5125001;27;8722;-76
2023/09/18 11:53:46;;;;;;;;;2.67;1.67;;;;;;;;5125331;27;8744;-76
2023/09/18 11:56:17;;;;;;;;;3.33;1.33;;;;;;;;5128605;27;8822;-76
2023/09/18 11:58:50;;;;;;;;;1.00;1.00;;;;;;;;5129232;27;8801;-76
2023/09/18 12:01:15;;;;;;;;;2.75;2.75;;;;;;;;5124826;27;8819;-76
2023/09/18 12:03:41;;;;;;;;;0.33;0.33;;;;;;;;5125685;28;8858;-76
2023/09/18 12:06:08;;;;;;;;;1.33;1.33;;;;;;;;5124863;27;8784;-76
2023/09/18 12:08:35;;;;;;;;;1.25;1.25;;;;;;;;5124866;27;9309;-76
2023/09/18 12:11:05;;;;;;;;;2.25;1.25;;;;;;;;5125375;27;8737;-76
2023/09/18 12:13:30;;;;;;;;;1.00;1.00;;;;;;;;5125296;27;8799;-76
2023/09/18 12:16:01;;;;;;;;;2.33;0.67;;;;;;;;5124066;28;8801;-76
2023/09/18 12:18:28;;;;;;;;;1.75;1.25;;;;;;;;5125011;27;8736;-76
2023/09/18 12:20:55;;;;;;;;;0.50;0.50;;;;;;;;5124670;27;8780;-76
2023/09/18 12:23:21;;;;;;;;;1.75;1.00;;;;;;;;5124325;27;8773;-76
2023/09/18 12:25:50;;;;;;;;;1.33;1.00;;;;;;;;5124396;27;8796;-76
2023/09/18 12:28:17;;;;;;;;;1.00;1.00;;;;;;;;5123715;28;10130;-76
2023/09/18 12:30:43;;;;;;;;;1.50;0.25;;;;;;;;5123616;28;8784;-76
2023/09/18 12:33:08;;;;;;;;;1.00;1.00;;;;;;;;5124913;28;8792;-76
2023/09/18 12:35:34;;;;;;;;;1.33;1.33;;;;;;;;5124453;28;8801;-76
2023/09/18 12:38:00;;;;;;;;;3.00;1.33;;;;;;;;5124409;28;8993;-76
2023/09/18 12:40:27;;;;;;;;;2.00;2.00;;;;;;;;5123392;28;8828;-76
2023/09/18 12:42:54;;;;;;;;;2.00;2.00;;;;;;;;5106008;27;8863;-76
2023/09/18 12:45:20;;;;;;;;;1.50;1.50;;;;;;;;5105830;27;8770;-76
2023/09/18 12:47:45;;;;;;;;;2.00;1.00;;;;;;;;5145394;27;8800;-76
2023/09/18 12:50:12;;;;;;;;;2.00;1.00;;;;;;;;5143776;27;8812;-76
2023/09/18 12:52:38;;;;;;;;;1.00;1.00;;;;;;;;5145131;27;8777;-76
2023/09/18 12:55:05;;;;;;;;;1.00;1.00;;;;;;;;5142137;27;8826;-76
2023/09/18 12:57:31;;;;;;;;;1.75;1.25;;;;;;;;5124004;28;8800;-76
2023/09/18 12:59:56;;;;;;;;;1.67;1.67;;;;;;;;5131101;27;8855;-76
2023/09/18 13:02:22;;;;;;;;;5.67;2.00;;;;;;;;5145260;27;8797;-76
2023/09/18 13:04:55;;;;;;;;;1.25;1.00;;;;;;;;5142746;27;9195;-76
2023/09/18 13:07:21;;;;;;;;;1.25;1.25;;;;;;;;5143880;27;10237;-74
2023/09/18 13:10:00;;;;;;;;;0.75;0.25;;;;;;;;5142322;27;8920;-74
2023/09/18 13:12:25;;;;;;;;;3.00;0.00;;;;;;;;5126204;27;8921;-76
2023/09/18 13:15:04;;;;;;;;;1.00;1.00;;;;;;;;5124494;27;8784;-76
2023/09/18 13:17:36;;;;;;;;;2.50;2.00;;;;;;;;5123607;27;8735;-76
2023/09/18 13:20:07;;;;;;;;;0.50;0.25;;;;;;;;5125804;27;8890;-76
2023/09/18 13:22:32;;;;;;;;;3.00;1.00;;;;;;;;5144200;27;8772;-77
2023/09/18 13:24:58;;;;;;;;;0.67;0.67;;;;;;;;5143648;27;8820;-74
2023/09/18 13:27:24;;;;;;;;;2.00;1.00;;;;;;;;5143600;27;10238;-74
2023/09/18 13:29:49;;;;;;;;;3.33;2.00;;;;;;;;5144152;27;9387;-74
2023/09/18 13:32:14;;;;;;;;;2.33;1.33;;;;;;;;5144037;27;8835;-74
2023/09/18 13:34:40;;;;;;;;;1.33;1.33;;;;;;;;5144330;27;9690;-74
2023/09/18 13:37:05;;;;;;;;;2.67;1.00;;;;;;;;5144500;27;9036;-74
2023/09/18 13:39:30;;;;;;;;;1.00;1.00;;;;;;;;5144586;27;8897;-74
2023/09/18 13:41:56;;;;;;;;;0.33;0.33;;;;;;;;5141794;27;8807;-74
2023/09/18 13:44:21;;;;;;;;;2.33;1.33;;;;;;;;5122533;28;8976;-74
2023/09/18 13:46:47;;;;;;;;;0.00;0.00;;;;;;;;5123177;27;11481;-74
2023/09/18 13:49:12;;;;;;;;;0.33;0.33;;;;;;;;5123704;28;8808;-74
2023/09/18 13:51:37;;;;;;;;;0.00;0.00;;;;;;;;5123932;28;8872;-74
2023/09/18 13:54:03;;;;;;;;;1.33;0.00;;;;;;;;5123402;28;8772;-74
2023/09/18 13:56:29;;;;;;;;;0.00;0.00;;;;;;;;5122800;27;8779;-74
2023/09/18 13:58:55;;;;;;;;;1.33;0.00;;;;;;;;5123428;27;9507;-76
2023/09/18 14:01:21;;;;;;;;;1.25;0.00;;;;;;;;5122767;27;8727;-76
2023/09/18 14:03:46;;;;;;;;;0.25;0.00;;;;;;;;5122213;28;8937;-76
2023/09/18 14:06:12;;;;;;;;;2.67;0.00;;;;;;;;5123710;27;8791;-76
2023/09/18 14:08:39;;;;;;;;;0.00;0.00;;;;;;;;5123628;27;8791;-76
2023/09/18 14:11:06;;;;;;;;;2.25;0.00;;;;;;;;5123253;27;8751;-76
2023/09/18 14:13:31;;;;;;;;;0.75;0.00;;;;;;;;5138045;27;8807;-76
2023/09/18 14:15:56;;;;;;;;;0.00;0.00;;;;;;;;5143455;27;8839;-77
2023/09/18 14:18:21;;;;;;;;;0.33;0.00;;;;;;;;5143495;27;8858;-76
2023/09/18 14:20:47;;;;;;;;;0.67;0.00;;;;;;;;5142664;27;8780;-76
2023/09/18 14:23:12;;;;;;;;;2.00;0.00;;;;;;;;5143309;27;8785;-75
2023/09/18 14:25:37;;;;;;;;;0.00;0.00;;;;;;;;5141552;27;8880;-75
2023/09/18 14:28:02;;;;;;;;;0.00;0.00;;;;;;;;5143532;27;8769;-75
2023/09/18 14:30:31;;;;;;;;;0.00;0.00;;;;;;;;5130202;27;8817;-77
2023/09/18 14:32:56;;;;;;;;;0.00;0.00;;;;;;;;5127326;27;8737;-76
2023/09/18 14:35:23;;;;;;;;;0.00;0.00;;;;;;;;5129778;27;8816;-75
2023/09/18 14:37:48;;;;;;;;;0.00;0.00;;;;;;;;5129926;27;8831;-74
2023/09/18 14:40:14;;;;;;;;;1.67;0.00;;;;;;;;5127850;28;8796;-75
2023/09/18 14:42:40;;;;;;;;;2.67;0.00;;;;;;;;5129727;27;8892;-74
2023/09/18 14:45:05;;;;;;;;;1.00;1.00;;;;;;;;5128270;27;11485;-75
2023/09/18 14:47:31;;;;;;;;;2.00;1.00;;;;;;;;5134195;27;8809;-76
2023/09/18 14:49:58;;;;;;;;;2.00;0.00;;;;;;;;5137942;27;8819;-78